createdAt,value
2023-05-04T00:00:33.543Z,31.85
2023-05-04T00:03:01.056Z,35.30
2023-05-04T00:05:28.411Z,41.55
2023-05-04T00:07:56.092Z,34.17
2023-05-04T00:10:23.526Z,25.45
2023-05-04T00:12:50.927Z,41.78
2023-05-04T00:15:18.321Z,26.45
2023-05-04T00:17:45.746Z,29.35
2023-05-04T00:20:13.689Z,35.55
2023-05-04T00:22:41.080Z,31.80
2023-05-04T00:25:08.720Z,27.02
2023-05-04T00:27:36.193Z,32.72
2023-05-04T00:30:04.266Z,35.30
2023-05-04T00:32:32.105Z,25.63
2023-05-04T00:35:00.442Z,31.23
2023-05-04T00:37:27.771Z,36.13
2023-05-04T00:39:55.122Z,38.00
2023-05-04T00:42:22.668Z,32.08
2023-05-04T00:44:50.009Z,33.05
2023-05-04T00:47:19.772Z,24.40
2023-05-04T00:49:47.455Z,40.22
2023-05-04T00:52:16.747Z,34.08
2023-05-04T00:54:46.633Z,35.20
2023-05-04T00:57:15.968Z,31.13
2023-05-04T00:59:43.391Z,24.95
2023-05-04T01:02:10.742Z,39.47
2023-05-04T01:04:38.183Z,39.90
2023-05-04T01:07:29.404Z,38.67
2023-05-04T01:10:30.290Z,31.60
2023-05-04T01:13:07.565Z,30.02
2023-05-04T01:15:36.130Z,34.42
2023-05-04T01:18:03.676Z,37.33
2023-05-04T01:20:31.584Z,31.50
2023-05-04T01:22:59.775Z,41.20
2023-05-04T01:25:32.539Z,38.50
2023-05-04T01:28:07.753Z,34.33
2023-05-04T01:30:43.478Z,38.33
2023-05-04T01:33:11.461Z,37.63
2023-05-04T01:35:39.092Z,40.10
2023-05-04T01:38:06.499Z,43.30
2023-05-04T01:40:34.118Z,32.53
2023-05-04T01:43:01.669Z,40.67
2023-05-04T01:45:29.013Z,37.38
2023-05-04T01:47:56.633Z,42.67
2023-05-04T01:50:24.018Z,41.95
2023-05-04T01:52:51.419Z,36.53
2023-05-04T01:55:18.833Z,42.40
2023-05-04T01:57:46.400Z,43.33
2023-05-04T02:00:17.059Z,53.92
2023-05-04T02:02:44.641Z,42.15
2023-05-04T02:05:12.204Z,35.70
2023-05-04T02:07:39.560Z,39.58
2023-05-04T02:10:07.686Z,36.25
2023-05-04T02:12:35.251Z,45.35
2023-05-04T02:15:02.593Z,39.58
2023-05-04T02:17:29.925Z,40.28
2023-05-04T02:19:57.276Z,46.25
2023-05-04T02:22:24.759Z,40.45
2023-05-04T02:24:52.145Z,43.30
2023-05-04T02:27:19.486Z,38.38
2023-05-04T02:29:46.840Z,37.67
2023-05-04T02:32:14.204Z,37.92
2023-05-04T02:34:41.565Z,42.00
2023-05-04T02:37:08.888Z,50.88
2023-05-04T02:39:36.534Z,41.63
2023-05-04T02:42:04.145Z,43.83
2023-05-04T02:44:31.547Z,48.90
2023-05-04T02:46:58.873Z,49.17
2023-05-04T02:49:26.414Z,53.72
2023-05-04T02:51:53.827Z,43.53
2023-05-04T02:54:21.102Z,41.65
2023-05-04T02:56:48.396Z,59.08
2023-05-04T02:59:15.801Z,53.42
2023-05-04T03:01:43.317Z,50.08
2023-05-04T03:04:10.790Z,48.33
2023-05-04T03:06:38.109Z,62.78
2023-05-04T03:09:05.536Z,57.78
2023-05-04T03:11:32.895Z,51.33
2023-05-04T03:14:00.438Z,49.08
2023-05-04T03:16:27.929Z,48.15
2023-05-04T03:18:57.853Z,48.55
2023-05-04T03:21:25.430Z,51.17
2023-05-04T03:23:52.805Z,54.47
2023-05-04T03:26:20.118Z,46.75
2023-05-04T03:28:47.696Z,57.38
2023-05-04T03:31:15.066Z,53.50
2023-05-04T03:33:42.459Z,63.90
2023-05-04T03:36:09.825Z,52.20
2023-05-04T03:38:37.154Z,46.67
2023-05-04T03:41:04.840Z,49.80
2023-05-04T03:43:32.204Z,53.15
2023-05-04T03:45:59.594Z,64.18
2023-05-04T03:48:27.000Z,51.05
2023-05-04T03:50:54.657Z,46.28
2023-05-04T03:53:22.167Z,56.65
2023-05-04T03:55:49.624Z,45.65
2023-05-04T03:58:16.980Z,55.42
2023-05-04T04:00:44.968Z,43.67
2023-05-04T04:03:12.487Z,48.45
2023-05-04T04:05:39.999Z,50.38
2023-05-04T04:08:07.382Z,48.83
2023-05-04T04:10:35.569Z,43.47
2023-05-04T04:13:03.035Z,55.15
2023-05-04T04:15:30.471Z,54.50
2023-05-04T04:17:57.850Z,58.83
2023-05-04T04:20:25.461Z,56.63
2023-05-04T04:22:52.823Z,52.58
2023-05-04T04:25:20.247Z,46.47
2023-05-04T04:27:47.580Z,44.50
2023-05-04T04:30:15.127Z,47.50
2023-05-04T04:32:42.819Z,47.53
2023-05-04T04:35:10.760Z,59.45
2023-05-04T04:37:38.187Z,53.03
2023-05-04T04:40:07.789Z,53.20
2023-05-04T04:42:35.370Z,58.30
2023-05-04T04:45:05.614Z,49.70
2023-05-04T04:47:33.457Z,43.72
2023-05-04T04:50:00.880Z,51.45
2023-05-04T04:52:28.427Z,49.08
2023-05-04T04:54:55.810Z,53.20
2023-05-04T04:57:23.344Z,60.10
2023-05-04T04:59:50.835Z,55.00
2023-05-04T05:02:18.192Z,49.63
2023-05-04T05:04:46.577Z,44.92
2023-05-04T05:07:13.979Z,49.88
2023-05-04T05:09:42.141Z,48.03
2023-05-04T05:12:09.485Z,50.58
2023-05-04T05:14:36.808Z,47.63
2023-05-04T05:17:04.397Z,54.88
2023-05-04T05:19:37.218Z,45.88
2023-05-04T05:22:05.320Z,53.78
2023-05-04T05:24:32.880Z,54.67
2023-05-04T05:27:00.740Z,47.85
2023-05-04T05:29:28.072Z,54.15
2023-05-04T05:31:55.506Z,49.95
2023-05-04T05:34:23.080Z,49.47
2023-05-04T05:36:50.402Z,51.55
2023-05-04T05:39:17.755Z,53.75
2023-05-04T05:41:45.120Z,57.92
2023-05-04T05:44:13.149Z,48.40
2023-05-04T05:46:40.822Z,55.15
2023-05-04T05:49:08.374Z,49.22
2023-05-04T05:51:35.897Z,47.72
2023-05-04T05:54:03.342Z,52.65
2023-05-04T05:56:30.739Z,55.10
2023-05-04T05:58:58.269Z,52.22
2023-05-04T06:01:26.643Z,51.15
2023-05-04T06:03:54.108Z,55.47
2023-05-04T06:06:21.596Z,55.13
2023-05-04T06:08:49.268Z,64.10
2023-05-04T06:11:16.700Z,51.35
2023-05-04T06:13:44.004Z,56.97
2023-05-04T06:16:11.470Z,46.33
2023-05-04T06:18:38.770Z,49.90
2023-05-04T06:21:06.288Z,58.58
2023-05-04T06:23:33.850Z,58.22
2023-05-04T06:26:01.311Z,47.42
2023-05-04T06:28:28.832Z,52.95
2023-05-04T06:30:56.991Z,56.85
2023-05-04T06:33:26.875Z,52.58
2023-05-04T06:35:54.946Z,55.47
2023-05-04T06:38:22.616Z,53.50
2023-05-04T06:40:50.216Z,52.15
2023-05-04T06:43:17.644Z,52.45
2023-05-04T06:45:45.125Z,60.72
2023-05-04T06:48:12.592Z,68.78
2023-05-04T06:50:41.183Z,50.25
2023-05-04T06:53:10.606Z,41.83
2023-05-04T06:55:38.556Z,51.95
2023-05-04T06:58:06.002Z,54.53
2023-05-04T07:00:33.559Z,51.58
2023-05-04T07:03:01.250Z,64.47
2023-05-04T07:05:30.151Z,44.85
2023-05-04T07:07:59.233Z,61.38
2023-05-04T07:10:26.693Z,58.78
2023-05-04T07:12:54.101Z,58.28
2023-05-04T07:15:21.813Z,57.63
2023-05-04T07:17:49.225Z,49.65
2023-05-04T07:20:16.808Z,45.63
2023-05-04T07:22:44.707Z,42.35
2023-05-04T07:25:12.269Z,50.22
2023-05-04T07:27:41.835Z,42.38
2023-05-04T07:30:09.422Z,43.17
2023-05-04T07:32:36.803Z,38.13
2023-05-04T07:35:04.450Z,36.55
2023-05-04T07:37:32.432Z,48.55
2023-05-04T07:40:06.070Z,33.03
2023-05-04T07:42:36.806Z,39.92
2023-05-04T07:45:04.748Z,38.63
2023-05-04T07:47:32.205Z,40.85
2023-05-04T07:49:59.635Z,46.92
2023-05-04T07:52:27.581Z,39.70
2023-05-04T07:54:55.041Z,44.55
2023-05-04T07:57:22.711Z,34.90
2023-05-04T07:59:54.141Z,34.00
2023-05-04T08:02:22.128Z,37.67
2023-05-04T08:04:49.776Z,34.75
2023-05-04T08:07:17.614Z,43.60
2023-05-04T08:09:45.022Z,48.05
2023-05-04T08:12:12.724Z,32.78
2023-05-04T08:14:40.644Z,38.70
2023-05-04T08:17:08.275Z,34.60
2023-05-04T08:19:35.927Z,33.67
2023-05-04T08:22:04.103Z,40.78
2023-05-04T08:24:31.684Z,32.90
2023-05-04T08:27:08.026Z,37.90
2023-05-04T08:29:39.071Z,46.78
2023-05-04T08:32:06.506Z,28.35
2023-05-04T08:34:34.385Z,31.45
2023-05-04T08:37:02.436Z,31.58
2023-05-04T08:39:30.644Z,48.42
2023-05-04T08:41:58.114Z,36.90
2023-05-04T08:44:26.079Z,32.78
2023-05-04T08:46:54.254Z,44.47
2023-05-04T08:49:22.857Z,30.80
2023-05-04T08:51:53.559Z,35.70
2023-05-04T08:54:22.354Z,35.97
2023-05-04T08:56:52.620Z,36.67
2023-05-04T08:59:21.935Z,36.05
2023-05-04T09:01:57.928Z,28.88
2023-05-04T09:04:29.262Z,43.15
2023-05-04T09:06:58.794Z,32.60
2023-05-04T09:09:31.665Z,40.47
2023-05-04T09:11:59.167Z,44.28
2023-05-04T09:14:34.199Z,33.47
2023-05-04T09:17:03.162Z,30.33
2023-05-04T09:19:34.792Z,32.60
2023-05-04T09:22:02.993Z,34.25
2023-05-04T09:24:30.883Z,39.20
2023-05-04T09:27:10.752Z,41.15
2023-05-04T09:29:39.794Z,40.47
2023-05-04T09:32:12.648Z,36.65
2023-05-04T09:34:53.843Z,34.40
2023-05-04T09:37:22.311Z,36.78
2023-05-04T09:39:59.518Z,36.03
2023-05-04T09:42:27.173Z,34.20
2023-05-04T09:45:01.466Z,38.83
2023-05-04T09:47:40.074Z,36.90
2023-05-04T09:50:21.044Z,34.08
2023-05-04T09:52:49.892Z,33.40
2023-05-04T09:55:19.290Z,51.78
2023-05-04T09:57:50.151Z,33.38
2023-05-04T10:00:18.878Z,38.75
2023-05-04T10:02:48.075Z,31.75
2023-05-04T10:05:17.926Z,28.48
2023-05-04T10:07:47.113Z,31.60
2023-05-04T10:10:15.242Z,28.60
2023-05-04T10:12:44.927Z,36.72
2023-05-04T10:15:13.040Z,42.95
2023-05-04T10:17:55.409Z,31.05
2023-05-04T10:20:28.623Z,30.08
2023-05-04T10:23:29.384Z,40.83
2023-05-04T10:26:18.374Z,40.53
2023-05-04T10:29:12.307Z,33.75
2023-05-04T10:31:44.810Z,32.38
2023-05-04T10:34:23.205Z,38.13
2023-05-04T10:36:50.691Z,37.85
2023-05-04T10:39:23.286Z,46.45
2023-05-04T10:42:07.914Z,33.70
2023-05-04T10:44:57.180Z,29.55
2023-05-04T10:47:33.231Z,30.20
2023-05-04T10:50:08.815Z,41.95
2023-05-04T10:52:49.718Z,36.13
2023-05-04T10:55:18.619Z,36.50
2023-05-04T10:57:51.968Z,25.55
2023-05-04T11:00:19.853Z,30.55
2023-05-04T11:02:49.091Z,28.75
2023-05-04T11:05:20.772Z,35.78
2023-05-04T11:07:53.018Z,35.10
2023-05-04T11:10:26.124Z,33.15
2023-05-04T11:13:05.795Z,27.17
2023-05-04T11:15:47.765Z,40.08
2023-05-04T11:18:15.458Z,27.38
2023-05-04T11:20:42.946Z,28.75
2023-05-04T11:23:16.666Z,32.40
2023-05-04T11:25:45.501Z,27.52
2023-05-04T11:28:14.334Z,27.98
2023-05-04T11:30:44.387Z,31.77
2023-05-04T11:33:13.613Z,26.73
2023-05-04T11:35:42.790Z,30.88
2023-05-04T11:38:10.916Z,46.35
2023-05-04T11:40:41.703Z,25.10
2023-05-04T11:43:11.495Z,34.45
2023-05-04T11:45:41.256Z,37.28
2023-05-04T11:48:09.433Z,35.38
2023-05-04T11:50:38.143Z,36.30
2023-05-04T11:53:06.485Z,34.08
2023-05-04T11:55:37.018Z,35.22
2023-05-04T11:58:06.582Z,37.65
2023-05-04T12:00:45.040Z,40.55
2023-05-04T12:03:15.518Z,36.70
2023-05-04T12:05:47.188Z,31.85
2023-05-04T12:08:41.879Z,36.53
2023-05-04T12:11:26.168Z,30.27
2023-05-04T12:14:09.849Z,34.47
2023-05-04T12:16:39.467Z,32.33
2023-05-04T12:19:13.416Z,31.60
2023-05-04T12:21:54.648Z,47.10
2023-05-04T12:24:24.047Z,47.75
2023-05-04T12:26:52.382Z,47.78
2023-05-04T12:29:20.004Z,38.83
2023-05-04T12:31:47.716Z,37.00
2023-05-04T12:34:15.187Z,36.58
2023-05-04T12:36:44.478Z,41.20
2023-05-04T12:39:12.137Z,43.50
2023-05-04T12:41:40.231Z,44.28
2023-05-04T12:44:08.958Z,41.63
2023-05-04T12:46:37.725Z,40.08
2023-05-04T12:49:05.188Z,39.17
2023-05-04T12:51:32.620Z,38.13
2023-05-04T12:54:00.109Z,36.00
2023-05-04T12:56:28.674Z,38.42
2023-05-04T12:58:57.014Z,34.08
2023-05-04T13:01:24.511Z,47.72
2023-05-04T13:03:51.981Z,39.47
2023-05-04T13:06:19.915Z,45.88
2023-05-04T13:08:47.400Z,45.65
2023-05-04T13:11:19.731Z,55.97
2023-05-04T13:13:48.192Z,36.40
2023-05-04T13:16:16.281Z,41.88
2023-05-04T13:18:44.082Z,41.42
2023-05-04T13:21:11.780Z,40.63
2023-05-04T13:23:39.239Z,48.20
2023-05-04T13:26:06.870Z,37.05
2023-05-04T13:28:34.212Z,41.30
2023-05-04T13:31:03.144Z,49.55
2023-05-04T13:33:31.110Z,43.17
2023-05-04T13:36:01.925Z,43.28
2023-05-04T13:38:29.395Z,50.10
2023-05-04T13:40:57.352Z,56.42
2023-05-04T13:43:25.337Z,49.58
2023-05-04T13:45:52.826Z,61.05
2023-05-04T13:48:20.233Z,52.42
2023-05-04T13:50:47.874Z,44.88
2023-05-04T13:53:15.378Z,47.28
2023-05-04T13:55:42.788Z,50.05
2023-05-04T13:58:10.542Z,49.85
2023-05-04T14:00:38.299Z,47.15
2023-05-04T14:03:07.057Z,53.83
2023-05-04T14:05:35.700Z,56.80
2023-05-04T14:08:03.930Z,45.55
2023-05-04T14:10:31.464Z,49.97
2023-05-04T14:12:59.159Z,44.53
2023-05-04T14:15:28.196Z,47.90
2023-05-04T14:17:55.740Z,40.25
2023-05-04T14:20:23.092Z,43.20
2023-05-04T14:22:50.799Z,55.78
2023-05-04T14:25:18.495Z,44.70
2023-05-04T14:27:46.011Z,41.30
2023-05-04T14:30:14.078Z,42.60
2023-05-04T14:32:44.595Z,50.83
2023-05-04T14:35:12.685Z,46.35
2023-05-04T14:37:40.740Z,42.95
2023-05-04T14:40:10.893Z,45.30
2023-05-04T14:42:38.909Z,52.67
2023-05-04T14:45:08.985Z,56.55
2023-05-04T14:47:36.761Z,48.85
2023-05-04T14:50:05.400Z,48.17
2023-05-04T14:52:33.070Z,48.60
2023-05-04T14:55:03.676Z,46.85
2023-05-04T14:57:31.192Z,47.90
2023-05-04T14:59:58.733Z,40.92
2023-05-04T15:02:26.520Z,49.53
2023-05-04T15:04:54.040Z,45.58
2023-05-04T15:07:21.483Z,47.47
2023-05-04T15:09:48.862Z,42.15
2023-05-04T15:12:17.697Z,46.22
2023-05-04T15:14:45.907Z,56.38
2023-05-04T15:17:14.471Z,50.55
2023-05-04T15:19:41.871Z,61.38
2023-05-04T15:22:09.725Z,45.95
2023-05-04T15:24:38.736Z,46.13
2023-05-04T15:27:06.667Z,39.88
2023-05-04T15:29:34.114Z,44.35
2023-05-04T15:32:01.570Z,49.72
2023-05-04T15:34:29.363Z,48.38
2023-05-04T15:36:57.002Z,65.68
2023-05-04T15:39:24.658Z,41.00
2023-05-04T15:41:52.472Z,58.28
2023-05-04T15:44:21.082Z,45.25
2023-05-04T15:46:48.625Z,40.58
2023-05-04T15:49:16.113Z,40.60
2023-05-04T15:51:43.665Z,50.70
2023-05-04T15:54:11.217Z,42.75
2023-05-04T15:56:38.646Z,41.83
2023-05-04T15:59:06.238Z,40.22
2023-05-04T16:01:34.053Z,40.35
2023-05-04T16:04:03.345Z,47.00
2023-05-04T16:06:31.394Z,44.17
2023-05-04T16:08:58.847Z,47.95
2023-05-04T16:11:26.306Z,41.40
2023-05-04T16:13:53.906Z,40.80
2023-05-04T16:16:21.456Z,34.20
2023-05-04T16:18:48.907Z,44.65
2023-05-04T16:21:16.679Z,39.72
2023-05-04T16:23:44.566Z,39.92
2023-05-04T16:26:12.118Z,43.28
2023-05-04T16:28:40.726Z,43.42
2023-05-04T16:31:10.336Z,38.75
2023-05-04T16:33:40.389Z,37.95
2023-05-04T16:36:08.358Z,40.53
2023-05-04T16:38:35.753Z,33.42
2023-05-04T16:41:05.581Z,43.42
2023-05-04T16:43:33.214Z,39.30
2023-05-04T16:46:00.734Z,32.45
2023-05-04T16:48:28.307Z,30.67
2023-05-04T16:50:55.763Z,34.40
2023-05-04T16:53:24.036Z,44.25
2023-05-04T16:55:53.197Z,50.70
2023-05-04T16:58:22.864Z,38.53
2023-05-04T17:00:50.281Z,35.13
2023-05-04T17:03:17.960Z,44.40
2023-05-04T17:05:45.884Z,37.15
2023-05-04T17:08:13.694Z,34.03
2023-05-04T17:10:41.248Z,34.45
2023-05-04T17:13:08.683Z,35.63
2023-05-04T17:15:36.544Z,34.03
2023-05-04T17:18:04.082Z,32.90
2023-05-04T17:20:32.110Z,32.78
2023-05-04T17:23:00.084Z,31.40
2023-05-04T17:25:27.761Z,29.45
2023-05-04T17:27:55.403Z,34.83
2023-05-04T17:30:22.954Z,34.97
2023-05-04T17:32:51.259Z,31.08
2023-05-04T17:35:25.294Z,30.55
2023-05-04T17:37:57.868Z,33.88
2023-05-04T17:40:28.106Z,33.53
2023-05-04T17:42:56.476Z,30.80
2023-05-04T17:45:24.075Z,28.73
2023-05-04T17:47:52.119Z,32.15
2023-05-04T17:50:20.824Z,30.60
2023-05-04T17:52:55.950Z,32.72
2023-05-04T17:55:24.766Z,14.77
2023-05-04T17:57:53.882Z,8.02
2023-05-04T18:00:22.109Z,7.07
2023-05-04T18:02:49.857Z,6.88
2023-05-04T18:05:17.379Z,7.07
2023-05-04T18:07:44.691Z,5.90
2023-05-04T18:10:12.138Z,8.63
2023-05-04T18:12:39.625Z,9.07
2023-05-04T18:15:09.143Z,8.02
2023-05-04T18:17:38.077Z,3.88
2023-05-04T18:20:08.702Z,6.38
2023-05-04T18:22:36.993Z,10.25
2023-05-04T18:25:04.727Z,7.68
2023-05-04T18:27:34.605Z,6.07
2023-05-04T18:30:03.583Z,8.20
2023-05-04T18:32:31.417Z,8.63
2023-05-04T18:35:01.746Z,6.10
2023-05-04T18:37:30.981Z,7.00
2023-05-04T18:39:59.009Z,8.18
2023-05-04T18:42:26.741Z,11.00
2023-05-04T18:44:54.729Z,9.90
2023-05-04T18:47:22.367Z,5.53
2023-05-04T18:49:52.327Z,10.02
2023-05-04T18:52:20.230Z,12.00
2023-05-04T18:54:47.943Z,7.82
2023-05-04T18:57:15.697Z,6.57
2023-05-04T18:59:43.236Z,6.65
2023-05-04T19:02:11.167Z,6.53
2023-05-04T19:04:38.926Z,11.35
2023-05-04T19:07:06.378Z,11.07
2023-05-04T19:09:34.452Z,8.80
2023-05-04T19:12:04.040Z,8.65
2023-05-04T19:14:32.396Z,7.35
2023-05-04T19:17:01.348Z,10.45
2023-05-04T19:19:28.965Z,10.05
2023-05-04T19:21:56.416Z,8.35
2023-05-04T19:24:23.898Z,7.90
2023-05-04T19:26:52.350Z,11.80
2023-05-04T19:29:20.036Z,17.33
2023-05-04T19:31:47.660Z,22.35
2023-05-04T19:34:17.484Z,32.95
2023-05-04T19:36:45.283Z,23.50
2023-05-04T19:39:13.552Z,20.15
2023-05-04T19:41:41.408Z,25.95
2023-05-04T19:44:10.662Z,19.08
2023-05-04T19:46:38.280Z,12.63
2023-05-04T19:49:05.993Z,16.73
2023-05-04T19:51:34.126Z,14.52
2023-05-04T19:54:01.796Z,19.08
2023-05-04T19:56:29.454Z,18.20
2023-05-04T19:58:56.837Z,23.13
2023-05-04T20:01:24.862Z,13.85
2023-05-04T20:03:52.528Z,13.52
2023-05-04T20:06:23.198Z,17.98
2023-05-04T20:08:50.725Z,13.48
2023-05-04T20:11:18.221Z,17.25
2023-05-04T20:13:45.683Z,18.23
2023-05-04T20:16:13.218Z,14.02
2023-05-04T20:18:41.005Z,10.98
2023-05-04T20:21:08.475Z,20.90
2023-05-04T20:23:38.431Z,15.90
2023-05-04T20:26:06.389Z,18.08
2023-05-04T20:28:33.965Z,13.43
2023-05-04T20:31:01.528Z,17.88
2023-05-04T20:33:28.957Z,14.90
2023-05-04T20:35:56.363Z,13.70
2023-05-04T20:38:24.169Z,18.63
2023-05-04T20:40:52.579Z,13.48
2023-05-04T20:43:20.902Z,14.05
2023-05-04T20:45:51.295Z,16.20
2023-05-04T20:48:18.782Z,14.55
2023-05-04T20:50:46.215Z,34.63
2023-05-04T20:53:13.968Z,45.10
2023-05-04T20:55:43.676Z,26.08
2023-05-04T20:58:11.739Z,23.33
2023-05-04T21:00:40.246Z,18.38
2023-05-04T21:03:08.579Z,17.92
2023-05-04T21:05:39.056Z,18.05
2023-05-04T21:08:06.740Z,17.17
2023-05-04T21:10:34.283Z,20.88
2023-05-04T21:13:02.091Z,18.48
2023-05-04T21:15:30.616Z,20.67
2023-05-04T21:17:58.072Z,25.40
2023-05-04T21:20:26.221Z,25.13
2023-05-04T21:22:56.853Z,23.38
2023-05-04T21:25:24.315Z,26.88
2023-05-04T21:27:53.448Z,29.48
2023-05-04T21:30:22.412Z,25.70
2023-05-04T21:32:50.034Z,23.20
2023-05-04T21:35:24.021Z,26.15
2023-05-04T21:37:51.435Z,26.27
2023-05-04T21:40:18.969Z,22.65
2023-05-04T21:42:46.388Z,22.60
2023-05-04T21:45:13.867Z,20.13
2023-05-04T21:47:42.604Z,24.48
2023-05-04T21:50:10.500Z,20.65
2023-05-04T21:52:38.025Z,21.23
2023-05-04T21:55:05.997Z,18.35
2023-05-04T21:57:33.871Z,16.50
2023-05-04T22:00:02.117Z,19.20
2023-05-04T22:02:29.757Z,18.30
2023-05-04T22:04:57.258Z,19.30
2023-05-04T22:07:24.675Z,16.50
2023-05-04T22:09:52.344Z,15.55
2023-05-04T22:12:19.888Z,16.10
2023-05-04T22:14:47.465Z,12.75
2023-05-04T22:17:14.983Z,15.65
2023-05-04T22:19:42.371Z,15.85
2023-05-04T22:22:09.767Z,12.52
2023-05-04T22:24:37.397Z,14.65
2023-05-04T22:27:04.817Z,15.13
2023-05-04T22:29:35.123Z,14.90
2023-05-04T22:32:02.678Z,12.98
2023-05-04T22:34:30.048Z,12.80
2023-05-04T22:36:57.639Z,19.50
2023-05-04T22:39:26.179Z,13.00
2023-05-04T22:41:53.701Z,9.43
2023-05-04T22:44:21.153Z,10.57
2023-05-04T22:46:49.448Z,10.40
2023-05-04T22:49:20.045Z,8.30
2023-05-04T22:51:48.023Z,7.95
2023-05-04T22:54:15.513Z,7.35
2023-05-04T22:56:42.928Z,7.05
2023-05-04T22:59:10.602Z,8.85
2023-05-04T23:01:42.905Z,7.63
2023-05-04T23:04:11.557Z,9.43
2023-05-04T23:06:39.297Z,6.90
2023-05-04T23:09:06.755Z,5.95
2023-05-04T23:11:34.093Z,4.60
2023-05-04T23:14:01.415Z,3.80
2023-05-04T23:16:29.958Z,5.93
2023-05-04T23:18:57.537Z,8.27
2023-05-04T23:21:24.975Z,8.95
2023-05-04T23:23:52.498Z,9.65
2023-05-04T23:26:20.013Z,5.18
2023-05-04T23:28:48.704Z,4.55
2023-05-04T23:31:16.395Z,5.50
2023-05-04T23:33:43.921Z,6.47
2023-05-04T23:36:11.455Z,4.00
2023-05-04T23:38:39.002Z,3.35
2023-05-04T23:41:06.574Z,5.03
2023-05-04T23:43:34.213Z,4.00
2023-05-04T23:46:03.633Z,4.30
2023-05-04T23:48:32.859Z,7.90
2023-05-04T23:51:08.472Z,5.38
2023-05-04T23:53:36.989Z,5.55
2023-05-04T23:56:06.466Z,6.15
2023-05-04T23:58:35.535Z,6.32
